KSNL/SNL METAR and TAF weather

Enter ICAO airport designator
Station Type Date Time Source
KSNL METAR 2019/04/20 22:15 UTC NOAA

KSNL 202215Z AUTO 19014G17KT 10SM CLR 26/07 A2989 RMK AO2 T02600072


Station Type Date Time Source
KSNL Decoded METAR 2019/04/20 22:15 UTC NOAA

Shawnee, Shawnee Municipal Airport, OK, United States (KSNL) 35-21-26N 096-56-34W
Apr 20, 2019 - 06:15 PM EDT / 2019.04.20 2215 UTC
Wind: from the S (190 degrees) at 16 MPH (14 KT) gusting to 20 MPH (17 KT):0
Visibility: 10 mile(s):0
Sky conditions: clear
Temperature: 78.8 F (26.0 C)
Dew Point: 45.0 F (7.2 C)
Relative Humidity: 30%
Pressure (altimeter): 29.89 in. Hg (1012 hPa)
ob: KSNL 202215Z AUTO 19014G17KT 10SM CLR 26/07 A2989 RMK AO2 T02600072
cycle: 22

Station Type Date Time Source
KSNL TAF UTC NOAA

Error!

Example: see airport list